Time;durP1;ratioP1;P1;durP2;ratioP2;P2;SDS_P1;SDS_P2;PMS_P1;PMS_P2;Temp;Humidity;BMP_temperature;BMP_pressure;BME280_temperature;BME280_humidity;BME280_pressure;Samples;Min_cycle;Max_cycle;Signal;HPM_P1;HPM_P2
2021/04/02 00:00:28;;;;;;;4.33;2.63;;;7.00;99.90;;;;;;5026402;28;20215;-83
2021/04/02 00:02:55;;;;;;;4.47;2.50;;;7.00;99.90;;;;;;5039267;28;20199;-82
2021/04/02 00:05:21;;;;;;;3.90;2.30;;;7.00;99.90;;;;;;5023592;28;20216;-83
2021/04/02 00:07:48;;;;;;;7.30;2.03;;;7.00;99.90;;;;;;5041072;28;20229;-83
2021/04/02 00:10:20;;;;;;;7.20;2.43;;;6.90;99.90;;;;;;5041565;28;20569;-83
2021/04/02 00:12:47;;;;;;;9.73;3.33;;;7.10;99.90;;;;;;5041436;28;20195;-82
2021/04/02 00:15:20;;;;;;;6.80;1.97;;;7.00;99.90;;;;;;5026912;28;20209;-82
2021/04/02 00:17:51;;;;;;;8.07;2.87;;;6.70;99.90;;;;;;5055521;28;20630;-84
2021/04/02 00:20:18;;;;;;;3.73;2.20;;;6.80;99.90;;;;;;5040158;28;20262;-83
2021/04/02 00:22:46;;;;;;;8.27;2.93;;;6.80;99.90;;;;;;5056856;28;20206;-83
2021/04/02 00:25:14;;;;;;;7.30;2.33;;;6.80;99.90;;;;;;5033093;28;20229;-84
2021/04/02 00:27:42;;;;;;;7.67;2.20;;;6.90;99.90;;;;;;5056020;28;20571;-83
2021/04/02 00:30:16;;;;;;;6.13;2.60;;;6.90;99.90;;;;;;5024876;28;20200;-83
2021/04/02 00:32:43;;;;;;;5.27;2.40;;;7.00;99.90;;;;;;5056954;28;20208;-83
2021/04/02 00:35:11;;;;;;;7.47;2.77;;;7.00;99.90;;;;;;5020215;28;20202;-83
2021/04/02 00:37:39;;;;;;;6.47;2.43;;;7.00;99.90;;;;;;5049178;28;20202;-83
2021/04/02 00:40:10;;;;;;;7.80;2.60;;;7.10;99.90;;;;;;5043323;28;20642;-83
2021/04/02 00:42:37;;;;;;;3.97;2.37;;;7.10;99.90;;;;;;5037239;28;20233;-83
2021/04/02 00:45:04;;;;;;;4.30;2.57;;;7.20;99.90;;;;;;5024723;28;20218;-83
2021/04/02 00:47:30;;;;;;;9.37;2.87;;;7.20;99.90;;;;;;5039276;28;20211;-83
2021/04/02 00:49:57;;;;;;;4.47;2.10;;;7.30;99.90;;;;;;5027862;28;20195;-83
2021/04/02 00:52:23;;;;;;;3.60;2.00;;;7.30;99.90;;;;;;5026778;28;20593;-83
2021/04/02 00:54:50;;;;;;;4.67;3.37;;;7.10;99.90;;;;;;5020822;28;20199;-83
2021/04/02 00:57:16;;;;;;;3.20;2.53;;;7.10;99.90;;;;;;5035763;28;20206;-84
2021/04/02 00:59:43;;;;;;;5.67;2.20;;;7.00;99.90;;;;;;5035702;28;20613;-83
2021/04/02 01:02:09;;;;;;;4.57;2.50;;;7.00;99.90;;;;;;5022557;28;20201;-84
2021/04/02 01:04:35;;;;;;;13.77;3.27;;;6.70;99.90;;;;;;5053474;28;20220;-83
2021/04/02 01:07:02;;;;;;;4.87;2.47;;;6.90;99.90;;;;;;5041042;28;20262;-83
2021/04/02 01:09:28;;;;;;;6.93;2.27;;;7.00;99.90;;;;;;5039700;28;20196;-83
2021/04/02 01:11:55;;;;;;;6.73;2.47;;;6.60;99.90;;;;;;5034215;28;20307;-84
2021/04/02 01:14:22;;;;;;;7.83;2.50;;;6.70;99.90;;;;;;5021734;28;20274;-84
2021/04/02 01:16:49;;;;;;;4.70;2.13;;;6.70;99.90;;;;;;5022339;28;20197;-84
2021/04/02 01:19:22;;;;;;;4.03;2.23;;;6.60;99.90;;;;;;5029871;28;20230;-84
2021/04/02 01:22:06;;;;;;;4.33;2.00;;;6.60;99.90;;;;;;5040257;28;20207;-84
2021/04/02 01:25:11;;;;;;;5.50;2.50;;;6.60;99.90;;;;;;5040400;28;20226;-84
2021/04/02 01:27:55;;;;;;;7.97;2.63;;;6.70;99.90;;;;;;5039833;28;20198;-84
2021/04/02 01:30:22;;;;;;;8.80;3.20;;;6.60;99.90;;;;;;5052336;28;20200;-84
2021/04/02 01:32:52;;;;;;;5.23;2.20;;;6.60;99.90;;;;;;5037922;28;20338;-84
2021/04/02 01:35:28;;;;;;;8.50;2.60;;;6.70;99.90;;;;;;5033593;28;20273;-84
2021/04/02 01:38:13;;;;;;;5.70;2.30;;;6.90;99.90;;;;;;5038990;28;20236;-84
2021/04/02 01:40:42;;;;;;;5.93;2.23;;;6.70;99.90;;;;;;5047065;28;20262;-84
2021/04/02 01:43:12;;;;;;;7.37;2.23;;;6.70;99.90;;;;;;5044341;28;20208;-84
2021/04/02 01:45:41;;;;;;;8.20;2.27;;;6.70;99.90;;;;;;5049599;28;20254;-84
2021/04/02 01:48:09;;;;;;;6.07;2.27;;;6.70;99.90;;;;;;5044848;28;20302;-85
2021/04/02 01:50:42;;;;;;;7.87;2.33;;;6.40;99.90;;;;;;5056357;28;20215;-84
2021/04/02 01:53:10;;;;;;;8.87;2.40;;;6.40;99.90;;;;;;5035043;28;20341;-84
2021/04/02 01:55:41;;;;;;;4.80;2.17;;;6.50;99.90;;;;;;5030438;28;20246;-83
2021/04/02 01:58:08;;;;;;;4.17;1.77;;;6.50;99.90;;;;;;5057306;28;20262;-83
2021/04/02 02:00:45;;;;;;;5.93;2.20;;;6.80;99.90;;;;;;5051376;28;20284;-84
2021/04/02 02:03:12;;;;;;;5.00;1.97;;;6.80;99.90;;;;;;5040138;28;20252;-84
2021/04/02 02:05:40;;;;;;;3.90;2.00;;;6.70;99.90;;;;;;5035825;28;20230;-84
2021/04/02 02:08:07;;;;;;;5.03;1.80;;;6.80;99.90;;;;;;5023250;28;20259;-84
2021/04/02 02:10:35;;;;;;;3.43;2.60;;;6.60;99.90;;;;;;5016331;28;20249;-84
2021/04/02 02:13:04;;;;;;;6.17;1.87;;;6.70;99.90;;;;;;5042093;28;20234;-85
2021/04/02 02:15:31;;;;;;;13.13;2.43;;;6.60;99.90;;;;;;5040440;28;20290;-84
2021/04/02 02:18:01;;;;;;;2.93;1.53;;;6.60;99.90;;;;;;5033488;28;20266;-84
2021/04/02 02:20:30;;;;;;;4.27;2.10;;;6.50;99.90;;;;;;5038945;28;20199;-84
2021/04/02 02:22:58;;;;;;;4.60;2.13;;;6.40;99.90;;;;;;5036598;28;20640;-84
2021/04/02 02:25:26;;;;;;;3.13;1.90;;;6.40;99.90;;;;;;5060957;28;20210;-85
2021/04/02 02:27:53;;;;;;;6.47;1.80;;;6.50;99.90;;;;;;5039118;28;20205;-85
2021/04/02 02:30:23;;;;;;;3.90;2.10;;;6.50;99.90;;;;;;5039697;28;20211;-84
2021/04/02 02:32:51;;;;;;;10.33;2.20;;;6.50;99.90;;;;;;5033095;28;20203;-83
2021/04/02 02:35:18;;;;;;;6.80;2.40;;;6.40;99.90;;;;;;5024098;28;20206;-83
2021/04/02 02:37:45;;;;;;;3.40;1.80;;;6.30;99.90;;;;;;5022542;28;20210;-83
2021/04/02 02:40:14;;;;;;;9.50;2.83;;;6.20;99.90;;;;;;5038960;28;20212;-83
2021/04/02 02:42:41;;;;;;;5.43;2.00;;;6.30;99.90;;;;;;5044602;28;20221;-84
2021/04/02 02:45:10;;;;;;;6.30;1.97;;;6.30;99.90;;;;;;5057216;28;20212;-84
2021/04/02 02:47:37;;;;;;;5.90;1.90;;;6.30;99.90;;;;;;5039879;28;20199;-83
2021/04/02 02:50:08;;;;;;;3.63;1.70;;;6.30;99.90;;;;;;5038260;28;20223;-83
2021/04/02 02:52:35;;;;;;;4.37;1.30;;;6.40;99.90;;;;;;5038680;28;20206;-83
2021/04/02 02:55:03;;;;;;;6.47;2.00;;;6.40;99.90;;;;;;5023285;28;20209;-83
2021/04/02 02:57:32;;;;;;;5.43;1.80;;;6.30;99.90;;;;;;5041234;28;20413;-83
2021/04/02 03:00:00;;;;;;;5.13;1.67;;;6.30;99.90;;;;;;5037435;28;20202;-83
2021/04/02 03:02:28;;;;;;;4.27;1.70;;;6.40;99.90;;;;;;5037347;28;20200;-84
2021/04/02 03:04:57;;;;;;;4.07;1.57;;;6.30;99.90;;;;;;5037157;28;20233;-84
2021/04/02 03:07:25;;;;;;;5.67;1.67;;;6.20;99.90;;;;;;5046724;28;20205;-84
2021/04/02 03:09:53;;;;;;;5.77;1.77;;;6.30;99.90;;;;;;5038728;28;20278;-83
2021/04/02 03:12:21;;;;;;;3.23;1.80;;;6.20;99.90;;;;;;5040342;28;20205;-83
2021/04/02 03:14:48;;;;;;;9.43;1.77;;;6.20;99.90;;;;;;5024880;28;20208;-84
2021/04/02 03:17:15;;;;;;;5.00;2.10;;;6.30;99.90;;;;;;5049935;28;20209;-84
2021/04/02 03:19:43;;;;;;;3.10;1.57;;;6.20;99.90;;;;;;5036716;28;20212;-84
2021/04/02 03:22:10;;;;;;;5.07;1.60;;;6.20;99.90;;;;;;5040220;28;20221;-84
2021/04/02 03:24:39;;;;;;;4.37;1.90;;;6.20;99.90;;;;;;5022150;28;20226;-83
2021/04/02 03:27:07;;;;;;;11.30;1.67;;;6.20;99.90;;;;;;5039537;28;20499;-85
2021/04/02 03:29:34;;;;;;;7.03;1.80;;;6.10;99.90;;;;;;5044145;28;20232;-83
2021/04/02 03:32:07;;;;;;;4.77;1.37;;;6.10;99.90;;;;;;5037638;28;20194;-83
2021/04/02 03:34:34;;;;;;;5.00;1.77;;;6.10;99.90;;;;;;5055292;28;20206;-83
2021/04/02 03:37:08;;;;;;;4.07;1.73;;;6.10;99.90;;;;;;5026553;28;20209;-83
2021/04/02 03:39:41;;;;;;;5.57;2.10;;;6.20;99.90;;;;;;5036362;28;20225;-83
2021/04/02 03:42:11;;;;;;;3.10;1.37;;;6.10;99.90;;;;;;5033274;28;20208;-83
2021/04/02 03:44:40;;;;;;;4.53;2.00;;;6.10;99.90;;;;;;5039879;28;20322;-84
2021/04/02 03:47:14;;;;;;;3.67;1.63;;;6.10;99.90;;;;;;5040751;28;20208;-84
2021/04/02 03:49:42;;;;;;;3.73;1.93;;;6.00;99.90;;;;;;5054178;28;20248;-84
2021/04/02 03:52:13;;;;;;;5.90;2.10;;;6.00;99.90;;;;;;5025590;28;20210;-83
2021/04/02 03:54:41;;;;;;;3.70;1.47;;;6.00;99.90;;;;;;5058452;28;20507;-83
2021/04/02 03:57:08;;;;;;;7.90;2.27;;;6.10;99.90;;;;;;5059672;28;20205;-83
2021/04/02 03:59:37;;;;;;;4.83;1.80;;;6.10;99.90;;;;;;5036859;28;20244;-83
2021/04/02 04:02:07;;;;;;;4.70;1.83;;;6.00;99.90;;;;;;5035860;28;20229;-83
2021/04/02 04:04:34;;;;;;;4.63;1.70;;;6.10;99.90;;;;;;5040952;28;20212;-83
2021/04/02 04:07:04;;;;;;;6.30;1.90;;;6.00;99.90;;;;;;5041400;28;20217;-84
2021/04/02 04:09:30;;;;;;;4.23;1.90;;;5.90;99.90;;;;;;5057164;28;20182;-84
2021/04/02 04:11:59;;;;;;;4.00;1.80;;;5.90;99.90;;;;;;5031004;28;20215;-84
2021/04/02 04:14:29;;;;;;;7.30;1.93;;;5.80;99.90;;;;;;5039619;28;20200;-84
2021/04/02 04:16:58;;;;;;;7.37;1.90;;;5.90;99.90;;;;;;5039093;28;20266;-84
2021/04/02 04:19:28;;;;;;;4.37;1.67;;;5.80;99.90;;;;;;5041464;28;20224;-83
2021/04/02 04:21:57;;;;;;;4.73;2.00;;;5.80;99.90;;;;;;5035661;28;21430;-83
2021/04/02 04:24:27;;;;;;;3.03;2.03;;;5.80;99.90;;;;;;5042904;28;20586;-83
2021/04/02 04:26:56;;;;;;;6.07;1.90;;;5.90;99.90;;;;;;5039746;28;20228;-83
2021/04/02 04:29:46;;;;;;;3.83;2.30;;;5.80;99.90;;;;;;5044249;28;20228;-83
2021/04/02 04:32:20;;;;;;;3.93;2.03;;;5.70;99.90;;;;;;5042169;28;20351;-82
2021/04/02 04:34:49;;;;;;;7.33;2.30;;;5.80;99.90;;;;;;5044580;28;20206;-84
2021/04/02 04:37:18;;;;;;;6.20;1.90;;;5.80;99.90;;;;;;5046122;28;20273;-84
2021/04/02 04:39:50;;;;;;;4.47;2.20;;;5.80;99.90;;;;;;5042900;28;21249;-84
2021/04/02 04:42:19;;;;;;;3.13;2.33;;;5.60;99.90;;;;;;5045959;28;20325;-84
2021/04/02 04:44:49;;;;;;;4.70;2.10;;;5.70;99.90;;;;;;5042694;28;20249;-84
2021/04/02 04:47:16;;;;;;;3.27;1.70;;;5.80;99.90;;;;;;5056790;28;20192;-84
2021/04/02 04:49:44;;;;;;;6.50;1.80;;;5.70;99.90;;;;;;5026194;28;20201;-83
2021/04/02 04:52:15;;;;;;;3.80;1.83;;;5.70;99.90;;;;;;5040427;28;20256;-83
2021/04/02 04:54:45;;;;;;;3.97;1.70;;;5.80;99.90;;;;;;5040650;28;20250;-83
2021/04/02 04:57:13;;;;;;;3.60;1.77;;;5.80;99.90;;;;;;5040303;28;20205;-83
2021/04/02 04:59:41;;;;;;;3.03;1.63;;;5.90;99.90;;;;;;5040731;28;20199;-83
2021/04/02 05:02:09;;;;;;;4.77;2.47;;;5.90;99.90;;;;;;5036309;28;20197;-83
2021/04/02 05:04:37;;;;;;;10.63;2.53;;;5.80;99.90;;;;;;5041803;28;20238;-84
2021/04/02 05:07:08;;;;;;;3.07;1.53;;;5.90;99.90;;;;;;5039770;28;20216;-84
2021/04/02 05:09:37;;;;;;;5.50;1.97;;;5.80;99.90;;;;;;5038429;28;20208;-84
2021/04/02 05:12:06;;;;;;;2.10;1.90;;;5.90;99.90;;;;;;5040378;28;20201;-84
2021/04/02 05:14:34;;;;;;;4.93;2.03;;;6.00;99.90;;;;;;5037127;28;20287;-84
2021/04/02 05:17:01;;;;;;;6.00;2.10;;;6.00;99.90;;;;;;5036084;28;20255;-84
2021/04/02 05:19:28;;;;;;;2.53;1.63;;;6.10;99.90;;;;;;5023113;28;20197;-84
2021/04/02 05:21:55;;;;;;;10.83;2.07;;;6.00;99.90;;;;;;5037702;28;20205;-84
2021/04/02 05:24:23;;;;;;;3.47;1.97;;;6.00;99.90;;;;;;5026139;28;20236;-84
2021/04/02 05:26:50;;;;;;;7.30;2.10;;;5.90;99.90;;;;;;5056991;28;20223;-84
2021/04/02 05:29:17;;;;;;;5.27;2.00;;;5.90;99.90;;;;;;5041031;28;20715;-84
2021/04/02 05:31:45;;;;;;;4.30;2.07;;;5.80;99.90;;;;;;5025418;28;20216;-83
2021/04/02 05:34:14;;;;;;;5.17;2.40;;;5.80;99.90;;;;;;5026085;28;20266;-84
2021/04/02 05:36:40;;;;;;;5.17;2.43;;;5.80;99.90;;;;;;5037602;28;20221;-84
2021/04/02 05:39:07;;;;;;;5.93;2.10;;;5.90;99.90;;;;;;5041083;28;20214;-85
2021/04/02 05:41:47;;;;;;;6.27;2.30;;;5.90;99.90;;;;;;5039457;28;20574;-84
2021/04/02 05:44:18;;;;;;;6.13;2.33;;;6.00;99.90;;;;;;5038736;28;20679;-84
2021/04/02 05:46:45;;;;;;;10.17;2.80;;;5.80;99.90;;;;;;5041235;28;20200;-85
2021/04/02 05:49:12;;;;;;;4.97;2.30;;;5.80;99.90;;;;;;5038268;28;20259;-85
2021/04/02 05:51:41;;;;;;;5.10;2.20;;;5.90;99.90;;;;;;5039906;28;20607;-84
2021/04/02 05:54:09;;;;;;;4.27;2.13;;;5.80;99.90;;;;;;5054655;28;20212;-84
2021/04/02 05:56:35;;;;;;;5.67;2.33;;;5.70;99.90;;;;;;5044696;28;20213;-83
2021/04/02 05:59:02;;;;;;;3.70;2.30;;;5.80;99.90;;;;;;5043983;28;20204;-82
2021/04/02 06:01:31;;;;;;;4.07;2.07;;;6.00;99.90;;;;;;5052433;28;20336;-81
2021/04/02 06:03:57;;;;;;;9.77;2.80;;;5.90;99.90;;;;;;5057331;28;20522;-80
2021/04/02 06:06:24;;;;;;;4.53;1.83;;;5.80;99.90;;;;;;5031781;28;20547;-80
2021/04/02 06:08:52;;;;;;;5.77;2.20;;;5.80;99.90;;;;;;5024277;28;20281;-82
2021/04/02 06:11:18;;;;;;;9.13;2.30;;;5.80;99.90;;;;;;5019268;28;20201;-81
2021/04/02 06:13:45;;;;;;;6.87;2.93;;;5.90;99.90;;;;;;5028756;28;20209;-84
2021/04/02 06:16:12;;;;;;;2.77;1.60;;;6.00;99.90;;;;;;5035458;28;20229;-83
2021/04/02 06:18:40;;;;;;;5.40;2.03;;;6.00;99.90;;;;;;5023040;28;20238;-83
2021/04/02 06:21:08;;;;;;;4.27;2.00;;;5.80;99.90;;;;;;5055460;28;20186;-83
2021/04/02 06:23:36;;;;;;;5.27;2.20;;;5.90;99.90;;;;;;5035768;28;20755;-83
2021/04/02 06:26:12;;;;;;;8.60;2.07;;;6.10;99.90;;;;;;5023597;28;20266;-82
2021/04/02 06:28:41;;;;;;;6.57;1.93;;;6.20;99.90;;;;;;5029030;28;20232;-84
2021/04/02 06:31:10;;;;;;;3.50;1.80;;;6.10;99.90;;;;;;5036682;28;20197;-83
2021/04/02 06:33:37;;;;;;;3.40;1.70;;;6.30;99.90;;;;;;5033968;28;20207;-83
2021/04/02 06:36:18;;;;;;;5.83;1.70;;;6.40;99.90;;;;;;5037526;28;20181;-83
2021/04/02 06:38:47;;;;;;;2.73;1.60;;;6.40;99.90;;;;;;5052926;28;20223;-82
2021/04/02 06:41:15;;;;;;;8.17;2.17;;;6.40;99.90;;;;;;5034966;28;20218;-84
2021/04/02 06:43:44;;;;;;;7.33;1.83;;;6.60;99.90;;;;;;5036168;28;20203;-83
2021/04/02 06:46:13;;;;;;;5.63;1.90;;;6.60;99.90;;;;;;5040675;28;20209;-83
2021/04/02 06:48:40;;;;;;;6.93;1.60;;;6.90;99.90;;;;;;5040633;28;20200;-83
2021/04/02 06:51:25;;;;;;;8.57;1.70;;;7.10;99.90;;;;;;5041392;28;20293;-83
2021/04/02 06:53:55;;;;;;;3.40;1.60;;;7.40;99.90;;;;;;5050775;28;20202;-83
2021/04/02 06:56:22;;;;;;;4.17;1.60;;;7.30;99.90;;;;;;5056144;28;20193;-83
2021/04/02 06:58:52;;;;;;;3.67;1.53;;;7.40;99.90;;;;;;5050937;28;20225;-83
2021/04/02 07:01:21;;;;;;;6.70;1.97;;;7.10;99.90;;;;;;5053357;28;20200;-83
2021/04/02 07:03:49;;;;;;;1.97;1.40;;;7.30;99.90;;;;;;5055183;28;20196;-83
2021/04/02 07:06:17;;;;;;;3.13;1.67;;;7.30;99.90;;;;;;5037727;28;20223;-83
2021/04/02 07:08:47;;;;;;;5.20;1.93;;;7.40;99.90;;;;;;5061812;28;20190;-84
2021/04/02 07:11:15;;;;;;;4.73;1.97;;;7.70;99.90;;;;;;5049189;28;20200;-84
2021/04/02 07:13:51;;;;;;;5.27;2.17;;;7.50;99.90;;;;;;5043087;28;20266;-84
2021/04/02 07:16:22;;;;;;;6.07;2.10;;;7.60;99.90;;;;;;5041550;28;20196;-84
2021/04/02 07:18:53;;;;;;;4.47;1.40;;;7.60;99.90;;;;;;5029560;28;20218;-84
2021/04/02 07:21:20;;;;;;;2.70;1.27;;;7.90;99.90;;;;;;5044928;28;20254;-84
2021/04/02 07:23:47;;;;;;;8.57;1.80;;;7.80;99.90;;;;;;5043586;28;20253;-85
2021/04/02 07:26:13;;;;;;;5.27;1.60;;;8.00;99.90;;;;;;5027634;28;20238;-83
2021/04/02 07:28:45;;;;;;;6.33;1.60;;;8.00;99.90;;;;;;5039754;28;20231;-81
2021/04/02 07:31:13;;;;;;;11.60;2.10;;;8.40;99.90;;;;;;5040971;28;20197;-82
2021/04/02 07:33:43;;;;;;;4.17;1.50;;;8.20;99.90;;;;;;5056525;28;20201;-82
2021/04/02 07:36:14;;;;;;;4.43;1.53;;;8.10;99.90;;;;;;5059890;28;20200;-81
2021/04/02 07:38:46;;;;;;;4.00;1.17;;;8.30;99.90;;;;;;5031542;28;20197;-80
2021/04/02 07:41:16;;;;;;;5.13;1.57;;;8.20;99.90;;;;;;5045610;28;20241;-86
2021/04/02 07:43:57;;;;;;;4.60;1.60;;;8.30;99.90;;;;;;5046708;28;20211;-85
2021/04/02 07:46:29;;;;;;;4.27;1.40;;;7.90;99.90;;;;;;5043083;28;20222;-84
2021/04/02 07:49:04;;;;;;;3.50;1.40;;;7.80;99.90;;;;;;5037219;28;20555;-87
2021/04/02 07:51:44;;;;;;;2.97;1.23;;;7.70;99.90;;;;;;5037986;28;20210;-84
2021/04/02 07:54:35;;;;;;;3.20;1.67;;;7.60;99.90;;;;;;5028226;28;20225;-86
2021/04/02 07:57:16;;;;;;;4.27;1.43;;;7.60;99.90;;;;;;5061496;28;20648;-85
2021/04/02 07:59:42;;;;;;;4.10;2.10;;;7.60;99.90;;;;;;5040733;28;20255;-86
2021/04/02 08:02:12;;;;;;;4.77;1.40;;;7.50;99.90;;;;;;5054483;28;20302;-84
2021/04/02 08:04:41;;;;;;;8.10;1.93;;;7.60;99.90;;;;;;5040798;28;20222;-84
2021/04/02 08:07:15;;;;;;;6.70;1.40;;;7.80;99.90;;;;;;5041555;28;20283;-84
2021/04/02 08:09:51;;;;;;;3.83;1.87;;;8.00;99.90;;;;;;5055684;28;20202;-84
2021/04/02 08:12:32;;;;;;;4.40;1.37;;;8.00;99.90;;;;;;5032265;28;20210;-86
2021/04/02 08:15:13;;;;;;;7.90;1.17;;;8.10;99.90;;;;;;5039938;28;20238;-84
2021/04/02 08:17:40;;;;;;;6.30;1.47;;;8.10;99.90;;;;;;5042951;28;20288;-83
2021/04/02 08:20:13;;;;;;;5.13;1.43;;;7.80;99.90;;;;;;5015369;28;20303;-82
2021/04/02 08:22:40;;;;;;;4.63;1.43;;;7.80;99.90;;;;;;5058318;28;20200;-84
2021/04/02 08:25:10;;;;;;;6.03;2.03;;;7.80;99.90;;;;;;5026960;28;20554;-83
2021/04/02 08:27:38;;;;;;;5.20;1.33;;;8.00;99.90;;;;;;5054141;28;20241;-83
2021/04/02 08:30:06;;;;;;;2.43;1.00;;;7.80;99.90;;;;;;5041002;28;21024;-82
2021/04/02 08:32:38;;;;;;;5.40;1.43;;;8.00;99.90;;;;;;5046311;28;20207;-82
2021/04/02 08:35:11;;;;;;;3.73;1.27;;;8.00;99.90;;;;;;5022710;28;20233;-84
2021/04/02 08:37:37;;;;;;;4.77;1.10;;;8.50;99.90;;;;;;5043387;28;20282;-85
2021/04/02 08:40:09;;;;;;;3.70;1.17;;;9.00;99.90;;;;;;5045552;28;20260;-84
2021/04/02 08:42:36;;;;;;;4.70;1.53;;;9.00;99.90;;;;;;5040926;28;20205;-82
2021/04/02 08:45:09;;;;;;;5.83;1.30;;;8.80;99.90;;;;;;5041283;28;20337;-83
2021/04/02 08:47:39;;;;;;;4.43;1.57;;;9.10;99.90;;;;;;5020811;28;20250;-83
2021/04/02 08:50:07;;;;;;;4.93;1.07;;;9.50;99.90;;;;;;5040746;28;20201;-83
2021/04/02 08:52:34;;;;;;;7.17;1.40;;;9.50;99.90;;;;;;5041812;28;20233;-84
2021/04/02 08:55:07;;;;;;;6.50;1.40;;;9.60;99.90;;;;;;5036786;28;20216;-83
2021/04/02 08:57:35;;;;;;;6.20;1.47;;;9.30;99.90;;;;;;5051744;28;20201;-83
2021/04/02 09:00:07;;;;;;;4.47;1.87;;;8.80;99.90;;;;;;5039594;28;20203;-83
2021/04/02 09:02:35;;;;;;;5.97;1.70;;;8.70;99.90;;;;;;5056052;28;20310;-82
2021/04/02 09:05:04;;;;;;;3.10;1.50;;;8.50;99.90;;;;;;5039561;28;20288;-82
2021/04/02 09:07:39;;;;;;;4.73;1.27;;;9.10;99.90;;;;;;5032248;28;20208;-83
2021/04/02 09:10:28;;;;;;;7.30;1.80;;;9.80;99.90;;;;;;5037593;28;20195;-83
2021/04/02 09:12:54;;;;;;;5.77;1.70;;;10.00;99.90;;;;;;5017472;28;20239;-83
2021/04/02 09:15:28;;;;;;;3.17;1.30;;;10.10;99.70;;;;;;5023162;28;20211;-83
2021/04/02 09:18:12;;;;;;;3.20;1.37;;;9.80;99.90;;;;;;5035753;28;20230;-83
2021/04/02 09:20:39;;;;;;;4.63;1.13;;;9.40;99.90;;;;;;5024219;28;20550;-83
2021/04/02 09:23:08;;;;;;;9.57;1.37;;;9.40;99.90;;;;;;5023984;28;20646;-83
2021/04/02 09:25:38;;;;;;;5.10;1.23;;;9.20;99.90;;;;;;5054592;28;20228;-83
2021/04/02 09:28:06;;;;;;;5.17;1.20;;;9.20;99.90;;;;;;5036957;28;20599;-82
2021/04/02 09:30:33;;;;;;;6.70;1.63;;;9.30;99.90;;;;;;5017761;28;20206;-82
2021/04/02 09:32:59;;;;;;;4.77;1.70;;;8.80;99.90;;;;;;5020186;28;20240;-82
2021/04/02 09:35:26;;;;;;;3.80;1.03;;;8.70;99.90;;;;;;5015154;28;20205;-82
2021/04/02 09:37:53;;;;;;;5.07;1.40;;;8.70;99.90;;;;;;5017119;28;20201;-82
2021/04/02 09:40:27;;;;;;;3.80;1.37;;;8.70;99.90;;;;;;5022620;28;20301;-82
2021/04/02 09:42:54;;;;;;;4.40;1.03;;;8.90;99.90;;;;;;5038532;28;20252;-82
2021/04/02 09:45:20;;;;;;;3.30;1.53;;;9.10;99.90;;;;;;5033747;28;20306;-83
2021/04/02 09:47:48;;;;;;;5.53;1.70;;;9.20;99.90;;;;;;5048015;28;20314;-82
2021/04/02 09:50:19;;;;;;;3.27;1.40;;;9.40;99.90;;;;;;5026376;28;20663;-82
2021/04/02 09:52:46;;;;;;;3.07;1.53;;;9.40;99.90;;;;;;5039933;28;20213;-83
2021/04/02 09:55:14;;;;;;;5.70;1.93;;;9.40;99.90;;;;;;5033119;28;20243;-82
2021/04/02 09:57:41;;;;;;;4.30;1.50;;;9.10;99.90;;;;;;5029894;28;20228;-82
2021/04/02 10:00:10;;;;;;;3.13;1.50;;;9.00;99.90;;;;;;5031689;28;20200;-83
2021/04/02 10:02:37;;;;;;;2.03;1.20;;;8.80;99.90;;;;;;5037281;28;20268;-82
2021/04/02 10:05:06;;;;;;;4.87;1.80;;;9.00;99.90;;;;;;5020456;28;20219;-82
2021/04/02 10:07:33;;;;;;;5.63;1.73;;;9.10;99.90;;;;;;5054227;28;20200;-82
2021/04/02 10:10:00;;;;;;;4.57;1.43;;;9.00;99.90;;;;;;5017810;28;20199;-82
2021/04/02 10:12:27;;;;;;;8.10;1.70;;;9.10;99.90;;;;;;5016632;28;20197;-82
2021/04/02 10:14:54;;;;;;;2.27;1.33;;;9.00;99.90;;;;;;5022247;28;20636;-82
2021/04/02 10:17:25;;;;;;;4.83;2.73;;;8.80;99.90;;;;;;5031721;28;20576;-82
2021/04/02 10:19:51;;;;;;;9.90;1.90;;;9.10;99.90;;;;;;5035434;28;20288;-82
2021/04/02 10:22:18;;;;;;;4.77;1.10;;;9.20;99.90;;;;;;5051276;28;20202;-82
2021/04/02 10:24:47;;;;;;;3.57;1.33;;;9.30;99.20;;;;;;5036542;28;20234;-82
2021/04/02 10:27:15;;;;;;;3.60;1.33;;;9.40;99.40;;;;;;5018925;28;20613;-82
2021/04/02 10:29:41;;;;;;;5.20;1.47;;;9.50;99.70;;;;;;5019980;28;20241;-82
2021/04/02 10:32:08;;;;;;;8.33;1.37;;;9.20;99.90;;;;;;5032603;28;20204;-82
2021/04/02 10:34:35;;;;;;;4.03;1.50;;;9.30;99.90;;;;;;5013055;28;20347;-82
2021/04/02 10:37:01;;;;;;;10.83;2.47;;;9.10;99.90;;;;;;5021435;28;20628;-82
2021/04/02 10:39:27;;;;;;;4.77;1.67;;;9.30;99.90;;;;;;5051545;28;20243;-83
2021/04/02 10:41:54;;;;;;;3.83;1.83;;;9.30;99.90;;;;;;5050591;28;20296;-83
2021/04/02 10:44:20;;;;;;;2.77;1.53;;;9.40;99.90;;;;;;5034548;28;20631;-83
2021/04/02 10:46:47;;;;;;;5.87;1.30;;;9.50;98.70;;;;;;5011911;28;20212;-83
2021/04/02 10:49:14;;;;;;;4.57;1.70;;;9.70;95.50;;;;;;5021245;28;20214;-83
2021/04/02 10:51:41;;;;;;;4.23;1.40;;;9.60;95.80;;;;;;5021471;28;20632;-83
2021/04/02 10:54:07;;;;;;;6.33;1.63;;;9.50;95.80;;;;;;5040882;28;20193;-84
2021/04/02 10:56:34;;;;;;;4.70;0.83;;;9.70;94.80;;;;;;5023626;28;20208;-84
2021/04/02 10:59:03;;;;;;;3.10;1.33;;;9.40;97.70;;;;;;5036260;28;20628;-83
2021/04/02 11:01:30;;;;;;;3.97;1.53;;;9.50;96.30;;;;;;5036982;28;20200;-83
2021/04/02 11:03:56;;;;;;;6.10;1.70;;;9.40;96.30;;;;;;5023456;28;20219;-83
2021/04/02 11:06:23;;;;;;;3.37;1.50;;;9.60;97.00;;;;;;5022912;28;20217;-83
2021/04/02 11:08:49;;;;;;;3.20;1.67;;;9.50;97.80;;;;;;5039878;28;20265;-82
2021/04/02 11:11:16;;;;;;;2.57;1.23;;;9.70;96.30;;;;;;5030863;28;20252;-82
2021/04/02 11:13:42;;;;;;;6.40;1.77;;;9.60;95.30;;;;;;5036740;28;20309;-82
2021/04/02 11:16:08;;;;;;;2.23;1.30;;;10.10;95.50;;;;;;5030517;28;20274;-82
2021/04/02 11:18:35;;;;;;;2.57;1.30;;;10.60;91.60;;;;;;5052760;28;20215;-83
2021/04/02 11:21:01;;;;;;;4.47;1.10;;;10.60;90.10;;;;;;5037746;28;20221;-83
2021/04/02 11:23:28;;;;;;;4.73;2.10;;;10.50;91.20;;;;;;5020253;28;20230;-83
2021/04/02 11:25:55;;;;;;;4.53;1.50;;;10.10;91.90;;;;;;5020683;28;20223;-83
2021/04/02 11:28:23;;;;;;;5.47;1.70;;;10.50;91.60;;;;;;5021314;28;20234;-81
2021/04/02 11:30:50;;;;;;;4.57;1.17;;;10.80;90.60;;;;;;5037124;28;20194;-83
2021/04/02 11:33:17;;;;;;;4.17;1.80;;;10.40;91.40;;;;;;5024894;28;20204;-81
2021/04/02 11:35:44;;;;;;;5.53;1.60;;;10.30;92.00;;;;;;5022819;28;20275;-84
2021/04/02 11:38:10;;;;;;;5.03;1.47;;;10.20;92.20;;;;;;5041980;28;20233;-84
2021/04/02 11:40:37;;;;;;;5.33;2.00;;;10.20;93.20;;;;;;5040081;28;20654;-84
2021/04/02 11:43:05;;;;;;;6.90;1.90;;;10.30;94.60;;;;;;5041295;28;20198;-84
2021/04/02 11:45:32;;;;;;;8.63;2.10;;;10.30;93.20;;;;;;5049693;28;20218;-83
2021/04/02 11:47:58;;;;;;;6.23;2.47;;;10.30;93.10;;;;;;5027905;28;20214;-82
2021/04/02 11:50:25;;;;;;;3.87;1.40;;;10.50;91.70;;;;;;5041233;28;20218;-81
2021/04/02 11:52:52;;;;;;;2.80;0.90;;;10.50;91.10;;;;;;5036416;28;20201;-80
2021/04/02 11:55:18;;;;;;;9.47;1.60;;;10.30;92.90;;;;;;5054669;28;20214;-82
2021/04/02 11:57:45;;;;;;;6.13;1.33;;;10.40;92.40;;;;;;5044776;28;20203;-80
2021/04/02 12:00:17;;;;;;;6.20;1.57;;;10.30;94.10;;;;;;5033350;28;20202;-82
2021/04/02 12:02:44;;;;;;;9.60;1.93;;;10.00;97.40;;;;;;5023917;28;20257;-81
2021/04/02 12:05:11;;;;;;;3.80;1.60;;;10.00;96.30;;;;;;5035121;28;20292;-80
2021/04/02 12:07:38;;;;;;;6.77;1.57;;;10.30;96.40;;;;;;5037309;28;20188;-83
2021/04/02 12:10:05;;;;;;;11.43;1.40;;;10.30;96.00;;;;;;5035394;28;20206;-84
2021/04/02 12:12:33;;;;;;;3.33;1.50;;;10.30;95.10;;;;;;5024200;28;20211;-81
2021/04/02 12:15:00;;;;;;;6.57;1.73;;;10.00;94.90;;;;;;5041143;28;20221;-81
2021/04/02 12:17:26;;;;;;;4.73;1.60;;;10.20;93.90;;;;;;5037007;28;20226;-83
2021/04/02 12:19:53;;;;;;;4.33;1.00;;;10.10;94.00;;;;;;5023092;28;20337;-82
2021/04/02 12:22:19;;;;;;;7.10;1.43;;;10.10;94.50;;;;;;5024348;28;20202;-83
2021/04/02 12:24:46;;;;;;;3.30;1.60;;;10.00;95.90;;;;;;5043831;28;20225;-82
2021/04/02 12:27:12;;;;;;;6.23;1.70;;;10.50;94.40;;;;;;5019407;28;20267;-82
2021/04/02 12:29:38;;;;;;;5.53;1.80;;;10.40;93.30;;;;;;5030792;28;20239;-81
2021/04/02 12:32:05;;;;;;;3.70;1.40;;;10.20;93.80;;;;;;5034562;28;20211;-83
2021/04/02 12:34:32;;;;;;;6.17;1.17;;;10.10;94.40;;;;;;5022695;28;21595;-82
2021/04/02 12:36:58;;;;;;;3.73;1.43;;;10.10;94.70;;;;;;5034934;28;20209;-82
2021/04/02 12:39:25;;;;;;;6.20;1.93;;;10.00;94.80;;;;;;5007457;28;20259;-82
2021/04/02 12:41:51;;;;;;;3.43;1.10;;;10.00;94.40;;;;;;5038840;28;20256;-82
2021/04/02 12:44:17;;;;;;;3.83;1.13;;;10.00;95.50;;;;;;5022300;28;20205;-84
2021/04/02 12:46:44;;;;;;;3.97;1.30;;;10.20;93.80;;;;;;5021020;28;20227;-82
2021/04/02 12:49:11;;;;;;;3.83;1.30;;;10.20;92.30;;;;;;5007594;28;20560;-82
2021/04/02 12:51:38;;;;;;;3.17;1.30;;;10.00;93.40;;;;;;5019719;28;20203;-82
2021/04/02 12:54:05;;;;;;;6.53;1.30;;;10.00;93.00;;;;;;5059556;28;20263;-83
2021/04/02 12:56:32;;;;;;;7.73;1.40;;;9.80;94.20;;;;;;5039363;28;20198;-82
2021/04/02 12:58:58;;;;;;;5.33;1.30;;;9.90;94.70;;;;;;5037621;28;20213;-82
2021/04/02 13:01:25;;;;;;;4.53;1.10;;;10.30;94.20;;;;;;5022669;28;20286;-82
2021/04/02 13:03:51;;;;;;;8.10;1.57;;;10.20;94.30;;;;;;5057894;28;20205;-83